Time;durP1;ratioP1;P1;durP2;ratioP2;P2;SDS_P1;SDS_P2;PMS_P1;PMS_P2;Temp;Humidity;BMP_temperature;BMP_pressure;BME280_temperature;BME280_humidity;BME280_pressure;Samples;Min_cycle;Max_cycle;Signal;HPM_P1;HPM_P2
2024/02/29 00:01:06;;;;;;;40.20;19.70;;;;;;;;;;5032842;28;20920;-80
2024/02/29 00:03:32;;;;;;;35.27;20.03;;;;;;;;;;5032570;28;20441;-80
2024/02/29 00:05:58;;;;;;;42.53;20.77;;;;;;;;;;5032737;28;20440;-80
2024/02/29 00:08:24;;;;;;;39.67;20.10;;;;;;;;;;5032759;28;20467;-80
2024/02/29 00:10:50;;;;;;;41.27;21.30;;;;;;;;;;5032414;28;20769;-79
2024/02/29 00:13:16;;;;;;;28.70;18.83;;;;;;;;;;5032708;28;20412;-79
2024/02/29 00:15:42;;;;;;;35.97;20.07;;;;;;;;;;5032635;28;20461;-79
2024/02/29 00:18:08;;;;;;;39.93;19.23;;;;;;;;;;5032627;28;20509;-79
2024/02/29 00:20:35;;;;;;;40.67;23.70;;;;;;;;;;5032652;28;20459;-80
2024/02/29 00:23:01;;;;;;;40.07;21.10;;;;;;;;;;5032646;28;20470;-81
2024/02/29 00:25:27;;;;;;;36.53;21.90;;;;;;;;;;5032571;28;20773;-81
2024/02/29 00:27:53;;;;;;;38.87;20.07;;;;;;;;;;5032214;28;20421;-82
2024/02/29 00:30:19;;;;;;;36.50;22.53;;;;;;;;;;5031250;28;20417;-80
2024/02/29 00:32:46;;;;;;;34.60;20.40;;;;;;;;;;5032468;28;20467;-81
2024/02/29 00:35:12;;;;;;;39.27;22.23;;;;;;;;;;5032534;28;20424;-80
2024/02/29 00:37:38;;;;;;;41.87;23.23;;;;;;;;;;5032386;28;20921;-80
2024/02/29 00:40:04;;;;;;;43.73;21.90;;;;;;;;;;5032323;28;20461;-81
2024/02/29 00:42:29;;;;;;;47.50;23.10;;;;;;;;;;5032096;28;20421;-80
2024/02/29 00:44:55;;;;;;;36.80;21.20;;;;;;;;;;5032408;28;20492;-80
2024/02/29 00:47:21;;;;;;;40.60;22.13;;;;;;;;;;5031046;28;20413;-83
2024/02/29 00:49:47;;;;;;;44.67;22.03;;;;;;;;;;5031136;28;20432;-80
2024/02/29 00:52:13;;;;;;;40.60;20.70;;;;;;;;;;5032324;28;20417;-80
2024/02/29 00:54:39;;;;;;;38.63;21.73;;;;;;;;;;5034599;28;20435;-80
2024/02/29 00:57:05;;;;;;;42.30;22.00;;;;;;;;;;5035474;28;20468;-80
2024/02/29 00:59:31;;;;;;;38.10;21.10;;;;;;;;;;5034578;28;20488;-80
2024/02/29 01:01:57;;;;;;;42.53;22.13;;;;;;;;;;5035736;28;20973;-82
2024/02/29 01:04:22;;;;;;;42.87;21.47;;;;;;;;;;5034426;28;20782;-82
2024/02/29 01:06:48;;;;;;;41.20;21.87;;;;;;;;;;5035722;28;20421;-80
2024/02/29 01:09:14;;;;;;;40.53;21.40;;;;;;;;;;5035759;28;20409;-82
2024/02/29 01:11:40;;;;;;;54.47;23.47;;;;;;;;;;5035335;28;20781;-80
2024/02/29 01:14:06;;;;;;;45.97;24.20;;;;;;;;;;5035590;28;20412;-80
2024/02/29 01:16:32;;;;;;;39.30;22.93;;;;;;;;;;5034132;28;20474;-80
2024/02/29 01:19:00;;;;;;;39.50;23.30;;;;;;;;;;5035479;28;20406;-80
2024/02/29 01:21:26;;;;;;;41.50;22.73;;;;;;;;;;5035486;28;20483;-81
2024/02/29 01:23:52;;;;;;;35.43;20.20;;;;;;;;;;5034170;28;20901;-79
2024/02/29 01:26:18;;;;;;;43.13;23.90;;;;;;;;;;5035103;28;20416;-82
2024/02/29 01:28:44;;;;;;;41.17;24.40;;;;;;;;;;5035128;28;20414;-82
2024/02/29 01:31:10;;;;;;;49.07;24.43;;;;;;;;;;5034048;28;20431;-80
2024/02/29 01:33:36;;;;;;;42.77;24.33;;;;;;;;;;5035217;28;20758;-80
2024/02/29 01:36:02;;;;;;;50.20;24.53;;;;;;;;;;5035166;28;20468;-80
2024/02/29 01:38:28;;;;;;;44.93;23.37;;;;;;;;;;5035145;28;20463;-80
2024/02/29 01:40:54;;;;;;;45.67;23.73;;;;;;;;;;5034602;28;20464;-80
2024/02/29 01:43:20;;;;;;;43.93;23.10;;;;;;;;;;5035043;28;20870;-82
2024/02/29 01:45:49;;;;;;;47.97;24.87;;;;;;;;;;5033722;28;20435;-82
2024/02/29 01:48:16;;;;;;;45.97;23.87;;;;;;;;;;5033733;28;20417;-80
2024/02/29 01:50:42;;;;;;;51.97;25.47;;;;;;;;;;5034900;28;20420;-80
2024/02/29 01:53:08;;;;;;;46.67;24.40;;;;;;;;;;5034809;28;20777;-82
2024/02/29 01:55:34;;;;;;;44.20;23.40;;;;;;;;;;5034393;28;20452;-81
2024/02/29 01:57:59;;;;;;;45.17;22.80;;;;;;;;;;5034707;28;20833;-81
2024/02/29 02:00:25;;;;;;;42.60;26.33;;;;;;;;;;5034733;28;20402;-82
2024/02/29 02:02:51;;;;;;;44.80;23.03;;;;;;;;;;5033414;28;20413;-81
2024/02/29 02:05:17;;;;;;;42.23;24.30;;;;;;;;;;5033527;28;20409;-81
2024/02/29 02:07:45;;;;;;;47.90;24.47;;;;;;;;;;5034643;28;20905;-82
2024/02/29 02:10:11;;;;;;;46.87;25.30;;;;;;;;;;5034539;28;20899;-80
2024/02/29 02:12:38;;;;;;;42.70;20.37;;;;;;;;;;5034137;28;20424;-80
2024/02/29 02:15:04;;;;;;;44.90;25.60;;;;;;;;;;5034389;28;20488;-85
2024/02/29 02:17:32;;;;;;;43.20;23.97;;;;;;;;;;5034342;28;20702;-85
2024/02/29 02:19:59;;;;;;;43.07;23.47;;;;;;;;;;5034384;28;20776;-85
2024/02/29 02:22:26;;;;;;;43.97;22.40;;;;;;;;;;5033093;28;20439;-85
2024/02/29 02:24:52;;;;;;;50.57;23.13;;;;;;;;;;5034243;28;20407;-83
2024/02/29 02:27:19;;;;;;;39.53;21.50;;;;;;;;;;5033826;28;20484;-83
2024/02/29 02:29:44;;;;;;;40.70;22.60;;;;;;;;;;5034214;28;20785;-83
2024/02/29 02:32:11;;;;;;;48.80;25.03;;;;;;;;;;5034156;28;20413;-83
2024/02/29 02:34:37;;;;;;;47.30;24.60;;;;;;;;;;5034121;28;20472;-83
2024/02/29 02:37:02;;;;;;;48.43;25.57;;;;;;;;;;5033908;28;20478;-83
2024/02/29 02:39:28;;;;;;;41.43;22.93;;;;;;;;;;5033747;28;20456;-81
2024/02/29 02:41:54;;;;;;;46.50;26.30;;;;;;;;;;5033605;28;20469;-82
2024/02/29 02:44:20;;;;;;;43.17;22.80;;;;;;;;;;5033940;28;20409;-83
2024/02/29 02:46:46;;;;;;;48.17;25.20;;;;;;;;;;5033833;28;20414;-83
2024/02/29 02:49:13;;;;;;;44.63;23.07;;;;;;;;;;5033738;28;20417;-81
2024/02/29 02:51:39;;;;;;;47.30;25.20;;;;;;;;;;5033866;28;20894;-82
2024/02/29 02:54:05;;;;;;;48.20;24.83;;;;;;;;;;5032377;28;20482;-83
2024/02/29 02:56:31;;;;;;;48.73;24.80;;;;;;;;;;5033352;28;20430;-82
2024/02/29 02:58:57;;;;;;;54.47;27.53;;;;;;;;;;5033456;28;20430;-83
2024/02/29 03:01:23;;;;;;;49.60;26.20;;;;;;;;;;5033637;28;20416;-83
2024/02/29 03:03:51;;;;;;;52.33;25.83;;;;;;;;;;5033660;28;20412;-83
2024/02/29 03:06:16;;;;;;;47.50;23.70;;;;;;;;;;5033449;28;20466;-79
2024/02/29 03:08:42;;;;;;;45.80;24.70;;;;;;;;;;5033418;28;20431;-79
2024/02/29 03:11:08;;;;;;;42.63;23.20;;;;;;;;;;5031821;28;20419;-79
2024/02/29 03:13:34;;;;;;;54.13;26.23;;;;;;;;;;5032846;28;20425;-80
2024/02/29 03:16:00;;;;;;;57.63;29.00;;;;;;;;;;5032555;28;20406;-81
2024/02/29 03:18:26;;;;;;;39.33;23.27;;;;;;;;;;5032898;28;20407;-79
2024/02/29 03:20:52;;;;;;;47.80;25.47;;;;;;;;;;5031561;28;20751;-80
2024/02/29 03:23:20;;;;;;;42.43;22.30;;;;;;;;;;5032736;28;20936;-80
2024/02/29 03:25:46;;;;;;;43.07;22.77;;;;;;;;;;5029674;28;20825;-78
2024/02/29 03:28:11;;;;;;;50.83;23.17;;;;;;;;;;5032654;28;20409;-80
2024/02/29 03:30:37;;;;;;;44.10;23.53;;;;;;;;;;5032683;28;20405;-80
2024/02/29 03:33:03;;;;;;;39.23;23.80;;;;;;;;;;5032552;28;20440;-79
2024/02/29 03:35:29;;;;;;;45.70;23.50;;;;;;;;;;5032515;28;20422;-80
2024/02/29 03:37:55;;;;;;;48.90;24.43;;;;;;;;;;5032481;28;20416;-83
2024/02/29 03:40:21;;;;;;;41.80;24.47;;;;;;;;;;5031920;28;20924;-79
2024/02/29 03:42:47;;;;;;;43.73;23.73;;;;;;;;;;5032574;28;20421;-80
2024/02/29 03:45:13;;;;;;;44.87;23.80;;;;;;;;;;5032465;28;20419;-80
2024/02/29 03:47:39;;;;;;;43.83;24.30;;;;;;;;;;5031204;28;21053;-81
2024/02/29 03:50:05;;;;;;;46.83;23.77;;;;;;;;;;5032342;28;20407;-81
2024/02/29 03:52:31;;;;;;;42.30;22.70;;;;;;;;;;5032436;28;20442;-80
2024/02/29 03:54:57;;;;;;;49.40;24.33;;;;;;;;;;5032224;28;20419;-80
2024/02/29 03:57:23;;;;;;;41.80;23.50;;;;;;;;;;5032205;28;20474;-81
2024/02/29 03:59:49;;;;;;;47.00;24.13;;;;;;;;;;5032336;28;20408;-80
2024/02/29 04:02:15;;;;;;;43.77;22.97;;;;;;;;;;5032302;28;20417;-80
2024/02/29 04:04:40;;;;;;;37.77;22.57;;;;;;;;;;5032380;28;20423;-80
2024/02/29 04:07:06;;;;;;;45.23;23.80;;;;;;;;;;5029574;28;20465;-80
2024/02/29 04:09:32;;;;;;;45.30;22.53;;;;;;;;;;5032256;28;20405;-80
2024/02/29 04:11:58;;;;;;;40.60;21.90;;;;;;;;;;5031874;28;20555;-80
2024/02/29 04:14:24;;;;;;;44.60;24.37;;;;;;;;;;5032126;28;20777;-80
2024/02/29 04:16:50;;;;;;;46.13;27.80;;;;;;;;;;5032175;28;20422;-82
2024/02/29 04:19:16;;;;;;;45.10;24.17;;;;;;;;;;5030911;28;20413;-79
2024/02/29 04:21:46;;;;;;;45.30;23.17;;;;;;;;;;5032069;28;20824;-81
2024/02/29 04:24:12;;;;;;;38.13;20.90;;;;;;;;;;5032094;28;20401;-81
2024/02/29 04:26:38;;;;;;;39.90;20.63;;;;;;;;;;5031695;28;20563;-82
2024/02/29 04:29:04;;;;;;;44.73;21.83;;;;;;;;;;5033565;28;20414;-80
2024/02/29 04:31:30;;;;;;;46.40;23.33;;;;;;;;;;5035976;28;20486;-80
2024/02/29 04:33:56;;;;;;;48.37;24.53;;;;;;;;;;5035819;28;20414;-82
2024/02/29 04:36:22;;;;;;;39.40;20.07;;;;;;;;;;5034505;28;20462;-79
2024/02/29 04:38:49;;;;;;;42.67;23.00;;;;;;;;;;5035446;28;20401;-80
2024/02/29 04:41:16;;;;;;;38.80;21.27;;;;;;;;;;5035490;28;20420;-79
2024/02/29 04:43:42;;;;;;;43.93;26.33;;;;;;;;;;5035636;28;20477;-78
2024/02/29 04:46:08;;;;;;;45.97;23.67;;;;;;;;;;5035561;28;20544;-80
2024/02/29 04:48:33;;;;;;;41.77;22.33;;;;;;;;;;5035557;28;20893;-80
2024/02/29 04:50:59;;;;;;;45.00;23.37;;;;;;;;;;5035532;28;20396;-79
2024/02/29 04:53:25;;;;;;;40.90;22.20;;;;;;;;;;5035344;28;20423;-81
2024/02/29 04:55:51;;;;;;;36.70;19.40;;;;;;;;;;5035049;28;20443;-80
2024/02/29 04:58:20;;;;;;;42.63;23.20;;;;;;;;;;5035410;28;20400;-80
2024/02/29 05:00:46;;;;;;;43.27;21.40;;;;;;;;;;5032726;28;20447;-80
2024/02/29 05:03:12;;;;;;;36.97;23.13;;;;;;;;;;5033991;28;20440;-80
2024/02/29 05:05:38;;;;;;;38.83;22.10;;;;;;;;;;5035130;28;20486;-80
2024/02/29 05:08:04;;;;;;;38.93;20.40;;;;;;;;;;5035199;28;20417;-80
2024/02/29 05:10:30;;;;;;;42.80;23.93;;;;;;;;;;5033678;28;20411;-81
2024/02/29 05:12:56;;;;;;;40.53;21.67;;;;;;;;;;5035162;28;20424;-81
2024/02/29 05:15:25;;;;;;;40.73;21.93;;;;;;;;;;5035049;28;20390;-80
2024/02/29 05:17:51;;;;;;;37.30;20.37;;;;;;;;;;5035020;28;20492;-80
2024/02/29 05:20:17;;;;;;;35.97;19.90;;;;;;;;;;5034994;28;20527;-80
2024/02/29 05:22:44;;;;;;;40.43;21.80;;;;;;;;;;5034996;28;20443;-80
2024/02/29 05:25:10;;;;;;;34.70;20.63;;;;;;;;;;5037100;28;20479;-80
2024/02/29 05:27:37;;;;;;;36.67;20.70;;;;;;;;;;5034861;28;20607;-80
2024/02/29 05:30:03;;;;;;;34.93;17.87;;;;;;;;;;5033482;28;20915;-79
2024/02/29 05:32:30;;;;;;;41.23;22.57;;;;;;;;;;5033606;28;20408;-78
2024/02/29 05:34:56;;;;;;;40.33;21.30;;;;;;;;;;5034877;28;20856;-78
2024/02/29 05:37:22;;;;;;;41.00;21.60;;;;;;;;;;5034729;28;20405;-78
2024/02/29 05:39:48;;;;;;;45.17;24.80;;;;;;;;;;5034021;28;20911;-80
2024/02/29 05:42:14;;;;;;;42.10;22.93;;;;;;;;;;5034638;28;20502;-79
2024/02/29 05:44:40;;;;;;;39.50;20.67;;;;;;;;;;5034465;28;20423;-79
2024/02/29 05:47:06;;;;;;;38.77;21.53;;;;;;;;;;5034302;28;20469;-80
2024/02/29 05:49:34;;;;;;;43.00;19.83;;;;;;;;;;5034478;28;20404;-80
2024/02/29 05:52:00;;;;;;;39.00;21.20;;;;;;;;;;5034373;28;20414;-82
2024/02/29 05:54:25;;;;;;;47.20;24.67;;;;;;;;;;5034279;28;20579;-80
2024/02/29 05:56:51;;;;;;;43.90;20.93;;;;;;;;;;5033899;28;20440;-81
2024/02/29 05:59:17;;;;;;;36.50;20.37;;;;;;;;;;5032975;28;20910;-79
2024/02/29 06:01:43;;;;;;;35.23;21.67;;;;;;;;;;5034170;28;20507;-80
2024/02/29 06:04:09;;;;;;;35.10;18.73;;;;;;;;;;5034179;28;20431;-79
2024/02/29 06:06:35;;;;;;;37.97;20.10;;;;;;;;;;5033978;28;20973;-80
2024/02/29 06:09:02;;;;;;;37.37;20.17;;;;;;;;;;5034081;28;20956;-79
2024/02/29 06:11:28;;;;;;;41.83;20.93;;;;;;;;;;5031249;28;20413;-80
2024/02/29 06:13:55;;;;;;;41.37;20.87;;;;;;;;;;5033992;28;20416;-80
2024/02/29 06:16:21;;;;;;;39.20;22.23;;;;;;;;;;5032622;28;20504;-81
2024/02/29 06:18:48;;;;;;;40.40;19.33;;;;;;;;;;5033831;28;20477;-83
2024/02/29 06:21:14;;;;;;;44.30;21.73;;;;;;;;;;5033798;28;20497;-79
2024/02/29 06:23:39;;;;;;;35.03;19.30;;;;;;;;;;5033810;28;21003;-82
2024/02/29 06:26:05;;;;;;;38.30;19.97;;;;;;;;;;5033166;28;20538;-82
2024/02/29 06:28:31;;;;;;;39.10;19.73;;;;;;;;;;5032290;28;20429;-83
2024/02/29 06:30:57;;;;;;;35.37;20.37;;;;;;;;;;5033555;28;20413;-84
2024/02/29 06:33:23;;;;;;;37.40;17.27;;;;;;;;;;5033575;28;20445;-84
2024/02/29 06:35:49;;;;;;;44.07;21.83;;;;;;;;;;5033601;28;20423;-85
2024/02/29 06:38:16;;;;;;;39.23;21.20;;;;;;;;;;5033697;28;20421;-84
2024/02/29 06:40:42;;;;;;;35.63;19.17;;;;;;;;;;5032879;28;20479;-79
2024/02/29 06:43:08;;;;;;;35.17;19.40;;;;;;;;;;5033315;28;20422;-79
2024/02/29 06:45:34;;;;;;;36.23;20.47;;;;;;;;;;5033349;28;20401;-79
2024/02/29 06:48:00;;;;;;;40.80;21.47;;;;;;;;;;5033259;28;20448;-79
2024/02/29 06:50:26;;;;;;;37.80;19.77;;;;;;;;;;5033232;28;20413;-79
2024/02/29 06:52:52;;;;;;;30.87;18.63;;;;;;;;;;5032719;28;20487;-80
2024/02/29 06:55:18;;;;;;;35.67;19.30;;;;;;;;;;5032956;28;20419;-80
2024/02/29 06:57:44;;;;;;;37.43;21.90;;;;;;;;;;5033058;28;20488;-82
2024/02/29 07:00:12;;;;;;;35.73;20.50;;;;;;;;;;5033079;28;20421;-81
2024/02/29 07:02:38;;;;;;;39.70;20.10;;;;;;;;;;5033231;28;20417;-80
2024/02/29 07:05:05;;;;;;;35.20;19.80;;;;;;;;;;5031636;28;20416;-85
2024/02/29 07:07:30;;;;;;;32.17;18.07;;;;;;;;;;5031219;28;20530;-81
2024/02/29 07:09:56;;;;;;;31.83;17.47;;;;;;;;;;5031889;28;20410;-80
2024/02/29 07:12:25;;;;;;;30.20;18.27;;;;;;;;;;5032751;28;20410;-82
2024/02/29 07:14:51;;;;;;;25.63;16.27;;;;;;;;;;5032817;28;20415;-83
2024/02/29 07:17:17;;;;;;;26.87;16.13;;;;;;;;;;5032715;28;20430;-85
2024/02/29 07:19:43;;;;;;;28.73;17.37;;;;;;;;;;5032623;28;20408;-84
2024/02/29 07:22:09;;;;;;;23.80;15.47;;;;;;;;;;5032658;28;20427;-81
2024/02/29 07:24:34;;;;;;;27.23;17.07;;;;;;;;;;5032230;28;20424;-84
2024/02/29 07:27:01;;;;;;;22.27;14.23;;;;;;;;;;5032633;28;20556;-85
2024/02/29 07:29:27;;;;;;;24.57;13.87;;;;;;;;;;5032466;28;20437;-82
2024/02/29 07:31:53;;;;;;;22.67;13.30;;;;;;;;;;5032510;28;20509;-81
2024/02/29 07:34:19;;;;;;;22.87;14.27;;;;;;;;;;5032553;28;20401;-82
2024/02/29 07:36:45;;;;;;;20.67;13.73;;;;;;;;;;5032556;28;20758;-81
2024/02/29 07:39:12;;;;;;;23.63;15.33;;;;;;;;;;5032200;28;20511;-82
2024/02/29 07:41:38;;;;;;;22.97;14.53;;;;;;;;;;5030935;28;20433;-83
2024/02/29 07:44:04;;;;;;;23.50;15.00;;;;;;;;;;5032410;28;20389;-85
2024/02/29 07:46:31;;;;;;;24.10;13.73;;;;;;;;;;5032306;28;20500;-80
2024/02/29 07:48:57;;;;;;;25.53;15.27;;;;;;;;;;5031344;28;20412;-85
2024/02/29 07:51:23;;;;;;;23.33;15.57;;;;;;;;;;5032507;28;20517;-82
2024/02/29 07:53:51;;;;;;;24.93;14.53;;;;;;;;;;5033285;28;20416;-83
2024/02/29 07:56:18;;;;;;;17.67;11.57;;;;;;;;;;5032482;28;20416;-84
2024/02/29 07:58:43;;;;;;;21.27;13.77;;;;;;;;;;5032898;28;20407;-81
2024/02/29 08:01:09;;;;;;;17.90;12.83;;;;;;;;;;5032766;28;20795;-85
2024/02/29 08:03:36;;;;;;;18.77;12.33;;;;;;;;;;5033707;28;20890;-81
2024/02/29 08:06:02;;;;;;;19.60;12.57;;;;;;;;;;5036678;28;20545;-83
2024/02/29 08:08:28;;;;;;;19.27;13.73;;;;;;;;;;5036789;28;20516;-81
2024/02/29 08:10:54;;;;;;;20.27;13.73;;;;;;;;;;5036353;28;20514;-82
2024/02/29 08:13:20;;;;;;;20.80;13.30;;;;;;;;;;5036755;28;20824;-82
2024/02/29 08:15:46;;;;;;;18.60;13.30;;;;;;;;;;5036377;28;20496;-84
2024/02/29 08:18:13;;;;;;;19.20;11.47;;;;;;;;;;5036890;28;20407;-82
2024/02/29 08:20:39;;;;;;;19.50;11.40;;;;;;;;;;5036420;28;20521;-82
2024/02/29 08:23:05;;;;;;;20.70;12.57;;;;;;;;;;5036192;28;20465;-82
2024/02/29 08:25:31;;;;;;;17.70;11.90;;;;;;;;;;5035922;28;20418;-81
2024/02/29 08:27:57;;;;;;;18.40;12.20;;;;;;;;;;5034809;28;20633;-81
2024/02/29 08:30:23;;;;;;;18.33;12.37;;;;;;;;;;5036185;28;20413;-83
2024/02/29 08:32:49;;;;;;;16.13;10.83;;;;;;;;;;5036321;28;20844;-82
2024/02/29 08:35:16;;;;;;;17.33;11.57;;;;;;;;;;5035994;28;20415;-82
2024/02/29 08:37:45;;;;;;;17.80;10.33;;;;;;;;;;5036181;28;20428;-82
2024/02/29 08:40:12;;;;;;;17.00;10.80;;;;;;;;;;5035615;28;20918;-83
2024/02/29 08:42:40;;;;;;;17.80;11.00;;;;;;;;;;5034771;28;20423;-81
2024/02/29 08:45:09;;;;;;;17.40;10.50;;;;;;;;;;5036065;28;20421;-81
2024/02/29 08:47:35;;;;;;;12.93;9.70;;;;;;;;;;5034394;28;20476;-81
2024/02/29 08:50:02;;;;;;;14.60;10.63;;;;;;;;;;5035510;28;20401;-82
2024/02/29 08:52:30;;;;;;;14.10;9.67;;;;;;;;;;5034464;28;20832;-81
2024/02/29 08:54:56;;;;;;;17.47;10.90;;;;;;;;;;5035591;28;20409;-82
2024/02/29 08:57:22;;;;;;;15.00;11.17;;;;;;;;;;5035939;28;20438;-82
2024/02/29 08:59:48;;;;;;;20.20;11.07;;;;;;;;;;5034860;28;20432;-82
2024/02/29 09:02:14;;;;;;;15.53;11.30;;;;;;;;;;5033615;28;20249;-83
2024/02/29 09:04:40;;;;;;;13.57;10.63;;;;;;;;;;5035168;28;20494;-82
2024/02/29 09:07:06;;;;;;;15.23;10.70;;;;;;;;;;5032820;28;20500;-81
2024/02/29 09:09:32;;;;;;;14.80;10.60;;;;;;;;;;5034795;28;20842;-83
2024/02/29 09:11:58;;;;;;;15.77;11.17;;;;;;;;;;5034092;28;20175;-82
2024/02/29 09:14:24;;;;;;;14.70;9.53;;;;;;;;;;5034651;28;20202;-80
2024/02/29 09:16:50;;;;;;;11.57;8.87;;;;;;;;;;5034649;28;20185;-78
2024/02/29 09:19:16;;;;;;;13.50;9.43;;;;;;;;;;5034175;28;20412;-79
2024/02/29 09:21:42;;;;;;;11.60;8.57;;;;;;;;;;5035185;28;21357;-80
2024/02/29 09:24:09;;;;;;;11.70;8.93;;;;;;;;;;5034884;28;20482;-80
2024/02/29 09:26:35;;;;;;;13.47;9.50;;;;;;;;;;5034857;28;20456;-80
2024/02/29 09:29:01;;;;;;;12.00;9.10;;;;;;;;;;5034246;28;20427;-80
2024/02/29 09:31:27;;;;;;;11.23;8.27;;;;;;;;;;5035373;28;20405;-80
2024/02/29 09:33:53;;;;;;;13.07;8.37;;;;;;;;;;5035275;28;20428;-80
2024/02/29 09:36:20;;;;;;;9.60;7.70;;;;;;;;;;5034815;28;20404;-80
2024/02/29 09:38:46;;;;;;;15.20;7.87;;;;;;;;;;5034985;28;20170;-80
2024/02/29 09:41:13;;;;;;;12.73;8.40;;;;;;;;;;5034837;28;20424;-80
2024/02/29 09:43:39;;;;;;;9.07;7.47;;;;;;;;;;5034993;28;20184;-80
2024/02/29 09:46:10;;;;;;;9.67;7.87;;;;;;;;;;5034818;28;20983;-80
2024/02/29 09:48:38;;;;;;;8.33;5.77;;;;;;;;;;5035097;28;20413;-80
2024/02/29 09:51:04;;;;;;;9.37;6.57;;;;;;;;;;5034896;28;20410;-80
2024/02/29 09:53:30;;;;;;;9.70;6.80;;;;;;;;;;5034921;28;20422;-81
2024/02/29 09:55:57;;;;;;;9.73;6.83;;;;;;;;;;5034340;28;20441;-81
2024/02/29 09:58:24;;;;;;;9.67;6.33;;;;;;;;;;5034980;28;20419;-80
2024/02/29 10:00:50;;;;;;;7.00;5.87;;;;;;;;;;5034910;28;20471;-81
2024/02/29 10:03:16;;;;;;;10.90;7.70;;;;;;;;;;5034148;28;20407;-81
2024/02/29 10:05:43;;;;;;;7.60;5.87;;;;;;;;;;5033535;28;20892;-80
2024/02/29 10:08:09;;;;;;;9.73;7.27;;;;;;;;;;5034451;28;20776;-81
2024/02/29 10:10:35;;;;;;;6.63;5.63;;;;;;;;;;5033972;28;20408;-81
2024/02/29 10:13:01;;;;;;;10.17;5.90;;;;;;;;;;5034251;28;20430;-82
2024/02/29 10:15:28;;;;;;;9.03;6.23;;;;;;;;;;5034674;28;20182;-82
2024/02/29 10:17:55;;;;;;;8.87;6.40;;;;;;;;;;5033998;28;20943;-83
2024/02/29 10:20:22;;;;;;;12.23;6.83;;;;;;;;;;5032963;28;20448;-84
2024/02/29 10:22:54;;;;;;;7.30;5.53;;;;;;;;;;5034408;28;20409;-82
2024/02/29 10:25:21;;;;;;;9.53;6.43;;;;;;;;;;5033943;28;20474;-82
2024/02/29 10:27:47;;;;;;;6.40;4.40;;;;;;;;;;5033489;28;21058;-82
2024/02/29 10:30:18;;;;;;;7.77;5.20;;;;;;;;;;5034349;28;20924;-82
2024/02/29 10:32:45;;;;;;;7.40;4.63;;;;;;;;;;5034336;28;20925;-82
2024/02/29 10:35:18;;;;;;;5.77;4.80;;;;;;;;;;5033243;28;20468;-83
2024/02/29 10:37:44;;;;;;;6.10;5.13;;;;;;;;;;5034369;28;20424;-83
2024/02/29 10:40:11;;;;;;;7.80;5.83;;;;;;;;;;5033611;28;20473;-82
2024/02/29 10:42:39;;;;;;;7.80;5.47;;;;;;;;;;5032853;28;20460;-83
2024/02/29 10:45:08;;;;;;;7.00;5.50;;;;;;;;;;5034077;28;20770;-82
2024/02/29 10:47:37;;;;;;;4.43;4.03;;;;;;;;;;5034030;28;20826;-84
2024/02/29 10:50:04;;;;;;;7.30;5.30;;;;;;;;;;5034092;28;20406;-83
2024/02/29 10:52:35;;;;;;;5.90;3.57;;;;;;;;;;5034117;28;20916;-83
2024/02/29 10:55:10;;;;;;;9.30;4.80;;;;;;;;;;5033603;28;20470;-83
2024/02/29 10:57:51;;;;;;;5.07;3.63;;;;;;;;;;5032649;28;21097;-82
2024/02/29 11:00:17;;;;;;;5.53;3.83;;;;;;;;;;5033977;28;20408;-83
2024/02/29 11:02:43;;;;;;;5.60;3.43;;;;;;;;;;5033833;28;20413;-82
2024/02/29 11:05:09;;;;;;;6.90;4.00;;;;;;;;;;5033321;28;20486;-82
2024/02/29 11:07:35;;;;;;;5.23;4.30;;;;;;;;;;5033563;28;20512;-80
2024/02/29 11:10:04;;;;;;;5.10;3.70;;;;;;;;;;5033164;28;20459;-81
2024/02/29 11:12:30;;;;;;;5.33;4.17;;;;;;;;;;5032234;28;20421;-79
2024/02/29 11:14:59;;;;;;;5.70;3.80;;;;;;;;;;5033433;28;20409;-79
2024/02/29 11:17:30;;;;;;;5.90;4.20;;;;;;;;;;5033374;28;20856;-81
2024/02/29 11:19:57;;;;;;;5.20;3.83;;;;;;;;;;5033484;28;20461;-79
2024/02/29 11:22:31;;;;;;;5.57;3.93;;;;;;;;;;5033399;28;20417;-79
2024/02/29 11:24:58;;;;;;;9.30;4.83;;;;;;;;;;5033020;28;20408;-81
2024/02/29 11:27:30;;;;;;;6.07;4.10;;;;;;;;;;5033424;28;20405;-79
2024/02/29 11:30:00;;;;;;;5.90;4.57;;;;;;;;;;5033357;28;20471;-79
2024/02/29 11:32:28;;;;;;;4.37;3.10;;;;;;;;;;5033311;28;20853;-80
2024/02/29 11:34:54;;;;;;;5.40;4.00;;;;;;;;;;5033233;28;20405;-80
2024/02/29 11:37:20;;;;;;;3.87;2.97;;;;;;;;;;5032859;28;20519;-80
2024/02/29 11:39:47;;;;;;;6.40;4.10;;;;;;;;;;5032610;28;20453;-79
2024/02/29 11:42:12;;;;;;;7.27;4.17;;;;;;;;;;5032996;28;20439;-81
2024/02/29 11:44:45;;;;;;;6.47;3.90;;;;;;;;;;5033013;28;20907;-79
2024/02/29 11:47:11;;;;;;;6.33;4.33;;;;;;;;;;5033085;28;20180;-81
2024/02/29 11:49:37;;;;;;;8.73;4.10;;;;;;;;;;5033010;28;20923;-81
2024/02/29 11:52:03;;;;;;;3.83;3.33;;;;;;;;;;5032979;28;20178;-81
2024/02/29 11:54:30;;;;;;;4.17;3.70;;;;;;;;;;5032589;28;20428;-80
2024/02/29 11:56:56;;;;;;;7.10;4.00;;;;;;;;;;5032858;28;20469;-81
2024/02/29 11:59:24;;;;;;;6.27;4.13;;;;;;;;;;5032845;28;20409;-81
2024/02/29 12:01:50;;;;;;;6.23;3.70;;;;;;;;;;5032817;28;20419;-80
2024/02/29 12:04:16;;;;;;;5.50;4.10;;;;;;;;;;5032777;28;20436;-81
2024/02/29 12:06:44;;;;;;;5.17;3.50;;;;;;;;;;5032791;28;20469;-81
2024/02/29 12:09:14;;;;;;;4.57;4.17;;;;;;;;;;5032452;28;20465;-81
2024/02/29 12:11:41;;;;;;;4.60;4.07;;;;;;;;;;5032822;28;20847;-81
2024/02/29 12:14:08;;;;;;;5.23;3.83;;;;;;;;;;5032795;28;20407;-82
2024/02/29 12:16:35;;;;;;;4.47;4.07;;;;;;;;;;5032715;28;20451;-81
2024/02/29 12:19:02;;;;;;;5.43;3.57;;;;;;;;;;5032699;28;20483;-80
2024/02/29 12:21:28;;;;;;;4.17;2.87;;;;;;;;;;5032661;28;20503;-81
2024/02/29 12:23:56;;;;;;;4.90;3.80;;;;;;;;;;5032363;28;20511;-80
2024/02/29 12:26:22;;;;;;;6.23;3.87;;;;;;;;;;5032718;28;20176;-81
2024/02/29 12:28:48;;;;;;;4.80;2.60;;;;;;;;;;5032633;28;20428;-80
2024/02/29 12:31:15;;;;;;;5.13;3.37;;;;;;;;;;5032570;28;20605;-81
2024/02/29 12:33:44;;;;;;;3.83;3.37;;;;;;;;;;5032602;28;20420;-81
2024/02/29 12:36:11;;;;;;;3.40;2.50;;;;;;;;;;5032592;28;20558;-80
2024/02/29 12:38:37;;;;;;;4.33;2.50;;;;;;;;;;5032179;28;20422;-80
2024/02/29 12:41:05;;;;;;;4.50;2.03;;;;;;;;;;5032395;28;20971;-80
2024/02/29 12:43:31;;;;;;;4.03;2.57;;;;;;;;;;5032518;28;20991;-81
2024/02/29 12:45:57;;;;;;;3.90;2.33;;;;;;;;;;5032479;28;20447;-80
2024/02/29 12:48:24;;;;;;;3.90;2.47;;;;;;;;;;5032620;28;20268;-79
2024/02/29 12:50:50;;;;;;;3.40;2.67;;;;;;;;;;5035224;28;20407;-80
2024/02/29 12:53:16;;;;;;;4.93;3.27;;;;;;;;;;5036147;28;20766;-80
2024/02/29 12:55:42;;;;;;;3.40;2.10;;;;;;;;;;5035678;28;20414;-79
2024/02/29 12:58:14;;;;;;;3.23;2.10;;;;;;;;;;5034682;28;20439;-81
2024/02/29 13:00:40;;;;;;;3.67;2.77;;;;;;;;;;5036020;28;20169;-82
2024/02/29 13:03:06;;;;;;;4.07;3.30;;;;;;;;;;5035967;28;20419;-81
2024/02/29 13:05:32;;;;;;;4.87;3.00;;;;;;;;;;5034608;28;20809;-81
2024/02/29 13:07:58;;;;;;;3.93;3.40;;;;;;;;;;5034540;28;20184;-80
2024/02/29 13:10:25;;;;;;;3.93;2.40;;;;;;;;;;5035510;28;20569;-84
2024/02/29 13:12:51;;;;;;;2.70;2.33;;;;;;;;;;5034722;28;20424;-84
2024/02/29 13:15:18;;;;;;;3.33;2.60;;;;;;;;;;5035862;28;20415;-83
2024/02/29 13:17:44;;;;;;;3.63;2.03;;;;;;;;;;5035822;28;20478;-81
2024/02/29 13:20:10;;;;;;;2.90;2.10;;;;;;;;;;5035629;28;20408;-81
2024/02/29 13:22:36;;;;;;;3.20;2.07;;;;;;;;;;5034358;28;20556;-81
2024/02/29 13:25:03;;;;;;;3.80;2.40;;;;;;;;;;5035133;28;20464;-81
2024/02/29 13:27:29;;;;;;;2.90;1.83;;;;;;;;;;5035543;28;20445;-80
2024/02/29 13:29:55;;;;;;;3.20;2.90;;;;;;;;;;5035523;28;20495;-79
2024/02/29 13:32:21;;;;;;;3.73;2.50;;;;;;;;;;5035453;28;20556;-79
2024/02/29 13:34:48;;;;;;;2.50;2.10;;;;;;;;;;5035297;28;20404;-78
2024/02/29 13:37:13;;;;;;;5.00;2.60;;;;;;;;;;5033978;28;20486;-79
2024/02/29 13:39:39;;;;;;;5.67;3.73;;;;;;;;;;5034699;28;20958;-79
2024/02/29 13:42:06;;;;;;;5.13;3.30;;;;;;;;;;5035179;28;20895;-80
2024/02/29 13:44:32;;;;;;;4.00;2.70;;;;;;;;;;5035284;28;20559;-79
2024/02/29 13:46:58;;;;;;;4.17;2.47;;;;;;;;;;5035061;28;20426;-78
2024/02/29 13:49:24;;;;;;;2.80;1.47;;;;;;;;;;5033886;28;20968;-80
2024/02/29 13:51:52;;;;;;;3.50;1.83;;;;;;;;;;5034983;28;20463;-80
2024/02/29 13:54:18;;;;;;;4.03;1.90;;;;;;;;;;5033331;28;20524;-81
2024/02/29 13:56:44;;;;;;;6.20;2.27;;;;;;;;;;5034820;28;20566;-80
2024/02/29 13:59:10;;;;;;;5.63;2.60;;;;;;;;;;5033588;28;20421;-81
2024/02/29 14:01:36;;;;;;;6.00;3.37;;;;;;;;;;5034696;28;20419;-81
2024/02/29 14:04:02;;;;;;;3.77;1.80;;;;;;;;;;5034728;28;20430;-80
2024/02/29 14:06:27;;;;;;;3.60;2.00;;;;;;;;;;5034633;28;20185;-80
2024/02/29 14:08:53;;;;;;;2.80;2.27;;;;;;;;;;5034428;28;20180;-80
2024/02/29 14:11:19;;;;;;;4.50;3.13;;;;;;;;;;5034782;28;20442;-80
2024/02/29 14:13:45;;;;;;;3.30;2.30;;;;;;;;;;5034639;28;20416;-80
2024/02/29 14:16:11;;;;;;;5.10;2.80;;;;;;;;;;5034525;28;20462;-80
2024/02/29 14:18:37;;;;;;;2.97;2.13;;;;;;;;;;5034458;28;20425;-80
2024/02/29 14:21:04;;;;;;;5.20;3.03;;;;;;;;;;5034429;28;20506;-80